メインページ
METAR-TAF:

METAR-TAF

空港 :

サンディエゴ国際空港

サンディエゴ, カリフォルニア州, アメリカ合衆国

緯度: 32-44-01N, 経度: 117-10-59W, 海抜: 4m

現時点の気象観測

当レポートは17分前の05:51(UTC)に作成
東/南東の風 3kt
気温 17°C
湿度 72%
気圧 1019 hPa
視程: 9.7km
高度1700ftの雲はほとんどない

METAR: KSAN 210551Z 11003KT 6SM BR FEW017 17/12 A3010 RMK AO2 SLP191 T01670122 10200 20167 51010

時間: 22:08 (06:08 UTC)

予報

当レポートは42分前の05:26(UTC)に作成
予報は21日の 06時(UTC)から 22日の 12時(UTC)まで有効
変向風 5kt
視程: 9.7km
高度1500ftの雲は散在している
21日の 1200時(UTC)から
変向風 5kt
視程: 10km
高度1500ftの雲は散在している
21日の 1600時(UTC)から
変向風 4kt
視程: 10km
高度20000ftの千切れ雲あり
21日の 2000時(UTC)から
南西の風 8kt
視程: 10km
高度20000ftの千切れ雲あり
22日の 0100時(UTC)から
変向風 5kt
視程: 10km
高度2000ftの雲は散在している
22日の 0400時(UTC)から
変向風 4kt
視程: 10km
高度1500ftの千切れ雲あり

TAF: KSAN 210526Z 2106/2212 VRB05KT 6SM BR SCT015 FM211200 VRB05KT P6SM SCT015 FM211600 VRB04KT P6SM BKN200 FM212000 23008KT P6SM BKN200 FM220100 VRB05KT P6SM SCT020 FM220400 VRB04KT P6SM BKN015

4,000以上の空港の気象観測と天気予報(METAR報とTAF報)

利用可能な観測所は地図上に黄色い丸と赤い丸で示す。

丸の上にカーソルを重ねると観測所名を参照できる。

次にクリックすると気象観測と天気予報を参照できる。

マップの切り替え:黒色「×」印の緑ボタンをクリックして拡大、「-」印の緑ボタンをクリックして縮小、緑色の三角印をクリックして隣りの地図に切り替え


METAR-TAF: